Latest Weather Observations for Munglinup West

IDW60801

Issued at 8:05 pm WST Saturday 1 November 2014 (issued every 30 minutes, with the page automatically refreshed every 10 minutes)

About weather observations | Map of weather stations | Latest weather observations for WA | Other Formats
Station Details ID: 012044 Name: MUNGLINUP WEST Lat: -33.55 Lon: 120.70 Height: 220.0 m
Data from the previous 72 hours. | See also: Recent months at Munglinup West
Date/Time
WST
Temp
°C
App
Temp
°C
Dew
Point
Rel
Hum
%
Delta-T
°C
Wind Press
QNH
hPa
Press
MSL
hPa
Rain
since 9 am
mm
Dir
 
Spd
km/h
Gust
km/h
Spd
kts
Gust
kts
01/08:00pm 14.4 10.5 9.6 73 2.5 E 20 30 11 16 1018.8 1018.3 0.0
01/07:30pm 15.1 11.3 9.7 70 2.8 E 20 30 11 16 1018.3 1017.7 0.0
01/07:00pm 15.8 11.7 10.1 69 3.0 E 22 32 12 17 1018.2 1017.6 0.0
01/06:30pm 16.4 12.4 10.3 67 3.3 E 22 30 12 16 1017.7 1017.1 0.0
01/06:00pm 18.0 13.5 10.1 60 4.2 E 24 33 13 18 1017.8 1017.2 0.0
01/05:30pm 19.5 14.8 10.5 56 4.9 ESE 26 37 14 20 1017.6 1017.0 0.0
01/05:00pm 21.1 16.5 9.7 48 6.2 ESE 24 33 13 18 1017.7 1017.1 0.0
01/04:30pm 22.4 17.3 9.2 43 7.1 ESE 26 37 14 20 1017.6 1017.0 0.0
01/04:11pm 23.4 17.7 8.3 38 8.1 ESE 28 37 15 20 1017.5 1016.9 0.0
01/04:00pm 25.5 21.6 0.9 20 11.7 E 11 19 6 10 1017.5 1016.9 0.0
01/03:30pm 25.5 21.2 0.9 20 11.7 ENE 13 30 7 16 1017.6 1017.0 0.0
01/03:00pm 25.5 21.7 1.6 21 11.5 E 11 22 6 12 1018.0 1017.4 0.0
01/02:30pm 25.2 21.3 1.3 21 11.4 NE 11 22 6 12 1018.5 1018.0 0.0
01/02:00pm 24.9 21.4 1.1 21 11.3 NNW 9 17 5 9 1018.8 1018.3 0.0
01/01:30pm 24.7 21.5 2.8 24 10.7 E 9 19 5 10 1018.9 1018.4 0.0
01/01:00pm 24.6 21.1 3.3 25 10.5 ENE 11 19 6 10 1019.4 1018.9 0.0
01/12:30pm 23.6 20.3 2.4 25 10.2 NNE 9 22 5 12 1019.9 1019.3 0.0
01/12:00pm 23.2 18.7 4.2 29 9.4 ENE 17 24 9 13 1020.3 1019.7 0.0
01/11:30am 22.7 19.0 4.2 30 9.2 NNE 13 24 7 13 1020.7 1020.1 0.0
01/11:00am 21.6 17.3 3.3 30 8.8 ENE 15 26 8 14 1021.3 1020.7 0.0
01/10:30am 20.9 17.2 4.5 34 8.1 NNE 13 24 7 13 1021.9 1021.3 0.0
01/10:00am 19.7 15.5 5.7 40 7.0 NE 17 28 9 15 1022.1 1021.5 0.0
01/09:30am 18.9 15.1 5.7 42 6.5 NE 15 26 8 14 1022.5 1022.0 0.0
01/09:00am 18.1 14.0 6.0 45 6.0 NNE 17 24 9 13 1022.6 1022.1 0.0
01/08:30am 17.4 13.8 6.9 50 5.3 ENE 15 24 8 13 1022.7 1022.2 0.0
01/08:00am 16.2 12.3 6.9 54 4.6 NE 17 28 9 15 1022.8 1022.3 0.0
01/07:30am 15.3 11.3 6.8 57 4.2 NE 17 24 9 13 1022.8 1022.5 0.0
01/07:00am 14.0 11.7 7.3 64 3.3 NNE 9 17 5 9 1022.7 1022.4 0.0
01/06:30am 11.7 9.5 8.0 78 1.8 NNE 9 13 5 7 1022.8 1022.5 0.0
01/06:00am 9.7 7.8 7.6 87 1.0 NNE 7 9 4 5 1022.6 1022.3 0.0
01/05:30am 7.6 5.0 6.2 91 0.6 NE 9 11 5 6 1022.0 1021.7 0.0
01/05:00am 7.2 4.5 5.8 91 0.6 NE 9 11 5 6 1021.5 1021.2 0.0
01/04:30am 6.6 4.2 5.2 91 0.6 ENE 7 9 4 5 1021.4 1021.0 0.0
01/04:00am 6.9 4.7 5.5 91 0.6 NE 6 7 3 4 1021.3 1020.9 0.0
01/03:30am 7.3 5.1 5.4 88 0.9 NE 6 7 3 4 1021.0 1020.6 0.0
01/03:00am 7.8 5.2 6.1 89 0.8 E 9 11 5 6 1020.9 1020.5 0.0
01/02:30am 8.6 6.2 6.9 89 0.8 ENE 9 9 5 5 1021.0 1020.6 0.0
01/02:00am 8.1 6.1 6.9 92 0.6 E 7 7 4 4 1021.1 1020.7 0.0
01/01:30am 7.5 6.3 6.3 92 0.6 E 2 4 1 2 1021.3 1020.9 0.0
01/01:00am 7.2 5.9 5.8 91 0.6 E 2 4 1 2 1021.1 1020.7 0.0
01/12:30am 8.1 7.3 6.4 89 0.8 CALM 0 0 0 0 1021.2 1020.8 0.0
01/12:00am 8.9 8.2 7.0 88 0.9 W 0 0 0 0 1021.6 1021.3 0.0
 
Date/Time
WST
Temp
°C
App
Temp
°C
Dew
Point
Rel
Hum
%
Delta-T
°C
Wind Press
QNH
hPa
Press
MSL
hPa
Rain
since 9 am
mm
Dir
 
Spd
km/h
Gust
km/h
Spd
kts
Gust
kts
31/11:30pm 9.3 8.7 7.4 88 0.9 CALM 0 2 0 1 1021.7 1021.4 0.0
31/11:00pm 9.3 8.2 6.9 85 1.1 SE 2 6 1 3 1021.7 1021.4 0.0
31/10:30pm 10.2 9.1 7.1 81 1.5 S 2 6 1 3 1021.8 1021.5 0.0
31/10:00pm 10.5 8.8 7.4 81 1.5 E 6 7 3 4 1021.9 1021.6 0.0
31/09:30pm 10.3 8.4 7.5 83 1.4 E 7 9 4 5 1021.8 1021.5 0.0
31/09:00pm 8.9 6.9 6.9 87 0.9 ESE 7 9 4 5 1021.8 1021.5 0.0
31/08:30pm 8.9 6.5 6.9 87 0.9 SE 9 11 5 6 1021.7 1021.4 0.0
31/08:00pm 9.2 6.8 6.8 85 1.1 SE 9 9 5 5 1021.4 1021.0 0.0
31/07:30pm 10.1 7.7 7.0 81 1.5 SE 9 11 5 6 1020.9 1020.5 0.0
31/07:00pm 11.9 10.0 7.6 75 2.1 S 7 13 4 7 1020.9 1020.5 0.0
31/06:30pm 12.8 10.2 7.9 72 2.4 S 11 17 6 9 1020.6 1020.2 0.0
31/06:00pm 14.1 11.6 8.1 67 3.0 S 11 19 6 10 1020.2 1019.8 0.0
31/05:30pm 15.7 12.1 8.4 62 3.7 S 17 30 9 16 1019.6 1019.3 0.0
31/05:00pm 16.0 11.4 8.0 59 4.1 S 22 32 12 17 1019.1 1018.8 0.0
31/04:30pm 15.7 11.5 7.5 58 4.1 S 19 24 10 13 1018.5 1018.2 0.0
31/04:00pm 16.9 12.8 7.8 55 4.6 S 19 30 10 16 1018.3 1018.0 0.0
31/03:30pm 17.3 12.5 7.4 52 5.0 SSW 22 33 12 18 1017.9 1017.6 0.0
31/03:00pm 17.4 12.1 8.5 56 4.6 S 26 37 14 20 1017.6 1017.3 0.0
31/02:30pm 19.4 14.9 6.2 42 6.6 SSW 19 30 10 16 1017.3 1016.9 0.0
31/02:00pm 18.2 13.6 6.7 47 5.8 SSE 20 33 11 18 1017.1 1016.7 0.0
31/01:30pm 18.7 13.3 6.2 44 6.3 S 24 43 13 23 1017.1 1016.7 0.0
31/01:00pm 19.6 15.3 7.7 46 6.2 S 20 37 11 20 1017.1 1016.7 0.0
31/12:30pm 18.0 13.3 7.7 51 5.3 S 22 35 12 19 1017.0 1016.6 0.0
31/12:00pm 17.9 13.5 7.3 50 5.4 SSW 20 35 11 19 1017.0 1016.6 0.0
31/11:30am 18.9 14.3 8.3 50 5.5 SSW 22 33 12 18 1016.8 1016.4 0.0
31/11:00am 17.5 12.1 8.1 54 4.8 SSW 26 41 14 22 1016.7 1016.3 0.0
31/10:30am 17.1 11.5 8.8 58 4.3 S 28 37 15 20 1016.5 1016.1 0.0
31/10:00am 17.5 12.5 9.4 59 4.3 S 26 37 14 20 1016.3 1015.9 0.0
31/09:30am 16.9 11.1 9.3 61 4.0 S 30 41 16 22 1015.9 1015.5 0.0
31/09:00am 16.4 10.8 8.6 60 4.0 SW 28 43 15 23 1015.6 1015.2 0.6
31/08:30am 17.0 10.2 7.1 52 5.0 SSW 32 43 17 23 1015.2 1014.8 0.6
31/08:00am 15.4 9.6 9.3 67 3.2 SSW 30 43 16 23 1015.0 1014.6 0.6
31/07:30am 15.0 10.0 11.0 77 2.1 SSW 28 37 15 20 1014.6 1014.3 0.6
31/07:00am 13.5 10.9 13.3 99 0.1 SW 19 28 10 15 1014.4 1014.1 0.6
31/06:30am 12.2 9.7 12.2 100 0.0 SW 17 28 9 15 1014.1 1013.8 0.6
31/06:00am 12.1 8.1 11.9 99 0.1 SSW 24 39 13 21 1013.9 1013.6 0.2
31/05:30am 12.8 8.8 11.9 94 0.5 SSW 24 32 13 17 1013.2 1012.8 0.0
31/05:00am 14.3 10.5 11.3 82 1.6 WSW 22 32 12 17 1012.5 1012.1 0.0
31/04:30am 14.0 10.3 12.6 91 0.8 W 24 33 13 18 1011.9 1011.5 0.0
31/04:00am 13.2 12.3 12.6 96 0.3 NW 9 13 5 7 1011.4 1011.0 0.0
31/03:30am 13.3 12.4 12.5 95 0.4 NW 9 13 5 7 1011.2 1010.8 0.0
31/03:00am 13.4 12.4 12.3 93 0.6 NW 9 13 5 7 1010.9 1010.5 0.0
31/02:30am 14.3 13.4 12.7 90 0.9 NW 9 11 5 6 1010.8 1010.4 0.0
31/02:00am 14.5 14.1 12.9 90 0.9 NW 7 9 4 5 1010.7 1010.3 0.0
31/01:30am 14.8 14.5 12.8 88 1.1 NW 6 7 3 4 1010.6 1010.2 0.0
31/01:00am 15.0 14.6 12.9 87 1.2 NNW 7 9 4 5 1010.6 1010.2 0.0
31/12:30am 15.0 15.2 12.9 87 1.2 NW 4 6 2 3 1010.9 1010.5 0.0
31/12:00am 15.4 15.9 12.9 85 1.4 W 2 4 1 2 1011.2 1010.8 0.0
 
Date/Time
WST
Temp
°C
App
Temp
°C
Dew
Point
Rel
Hum
%
Delta-T
°C
Wind Press
QNH
hPa
Press
MSL
hPa
Rain
since 9 am
mm
Dir
 
Spd
km/h
Gust
km/h
Spd
kts
Gust
kts
30/11:30pm 15.4 15.6 13.1 86 1.3 SW 4 7 2 4 1011.6 1011.2 0.0
30/11:00pm 15.2 14.1 13.1 87 1.2 SSW 11 17 6 9 1011.6 1011.2 0.0
30/10:30pm 15.1 14.9 13.0 87 1.2 SW 6 7 3 4 1011.5 1011.1 0.0
30/10:00pm 15.0 15.2 12.9 87 1.2 S 4 7 2 4 1011.4 1011.0 0.0
30/09:30pm 14.8 14.5 12.8 88 1.1 S 6 9 3 5 1011.2 1010.8 0.0
30/09:00pm 14.5 14.1 12.9 90 0.9 SSE 7 11 4 6 1011.3 1010.9 0.0
30/08:30pm 13.9 13.4 12.5 91 0.8 SSE 7 9 4 5 1011.2 1010.8 0.0
30/08:00pm 13.6 12.8 11.8 89 1.0 SSE 7 11 4 6 1010.8 1010.4 0.0
30/07:30pm 14.0 13.2 11.7 86 1.2 S 7 9 4 5 1010.5 1010.1 0.0
30/07:00pm 14.8 13.7 11.8 82 1.6 SSE 9 13 5 7 1010.2 1009.8 0.0
30/06:30pm 15.8 14.3 11.8 77 2.2 S 11 17 6 9 1009.7 1009.3 0.0
30/06:00pm 17.1 14.9 12.2 73 2.7 SSE 15 22 8 12 1009.2 1008.8 0.0
30/05:30pm 19.1 17.1 12.8 67 3.6 SSE 15 22 8 12 1009.0 1008.6 0.0
30/05:00pm 19.9 17.6 12.9 64 4.0 SE 17 28 9 15 1008.3 1007.9 0.0
30/04:30pm 20.1 17.4 12.8 63 4.2 SE 19 26 10 14 1008.4 1008.0 0.0
30/04:00pm 21.0 17.8 13.2 61 4.5 SE 22 30 12 16 1008.3 1007.9 0.0
30/03:30pm 21.5 18.3 13.2 59 4.8 SSE 22 37 12 20 1008.4 1008.0 0.0
30/03:00pm 22.4 19.3 13.5 57 5.2 SSE 22 32 12 17 1008.6 1008.2 0.0
30/02:30pm 22.9 19.9 13.7 56 5.4 SSE 22 37 12 20 1008.8 1008.4 0.0
30/02:00pm 24.4 21.7 14.5 54 5.9 SSE 22 35 12 19 1008.9 1008.5 0.0
30/01:30pm 25.4 23.8 13.9 49 6.8 SSE 15 24 8 13 1009.2 1008.8 0.0
30/01:00pm 25.7 25.3 12.9 45 7.5 ESE 7 15 4 8 1009.5 1009.1 0.0
30/12:30pm 24.5 24.3 13.1 49 6.7 N 6 11 3 6 1009.9 1009.6 0.0
30/12:00pm 24.4 24.5 13.9 52 6.2 NNE 6 9 3 5 1010.6 1010.2 0.0
30/11:30am 23.3 22.9 14.0 56 5.5 SSW 9 17 5 9 1011.1 1010.7 0.0
30/11:00am 21.7 21.6 13.3 59 4.9 SSW 6 13 3 7 1011.4 1011.0 0.0
30/10:30am 21.2 21.4 14.8 67 3.8 S 7 19 4 10 1011.9 1011.5 0.0
30/10:00am 20.2 19.5 14.3 69 3.5 SSW 11 19 6 10 1012.3 1011.9 0.0
30/09:30am 18.9 18.7 14.6 76 2.5 S 9 17 5 9 1013.0 1012.6 0.0
30/09:00am 17.4 17.7 15.0 86 1.4 S 7 13 4 7 1013.4 1013.0 1.4
30/08:30am 16.6 17.1 16.6 100 0.0 SSW 9 15 5 8 1013.7 1013.4 1.4
30/08:00am 15.4 15.5 15.4 100 0.0 SSW 9 13 5 7 1013.3 1012.9 1.4
30/07:30am 15.0 15.9 15.0 100 0.0 SSW 4 7 2 4 1013.4 1013.0 1.4
30/07:00am 14.6 15.7 14.6 100 0.0 SSW 2 4 1 2 1013.4 1013.0 1.2
30/06:30am 14.2 15.5 14.2 100 0.0 CALM 0 0 0 0 1013.6 1013.2 1.2
30/06:00am 14.2 14.8 14.2 100 0.0 N 4 6 2 3 1014.0 1013.7 1.0
30/05:30am 13.9 14.4 13.9 100 0.0 W 4 7 2 4 1013.9 1013.6 1.0
30/05:00am 14.0 14.1 14.0 100 0.0 SW 6 7 3 4 1013.5 1013.1 1.0
30/04:30am 14.0 13.9 14.0 100 0.0 SW 7 11 4 6 1013.5 1013.1 1.0
30/04:00am 14.0 12.8 14.0 100 0.0 SSW 13 19 7 10 1013.1 1012.7 1.0
30/03:30am 13.9 13.1 13.9 100 0.0 S 11 19 6 10 1012.6 1012.2 1.0
30/03:00am 14.0 12.8 14.0 100 0.0 S 13 17 7 9 1012.7 1012.3 1.0
30/02:30am 14.1 13.7 14.1 100 0.0 SSW 9 15 5 8 1013.7 1013.4 1.0
30/02:00am 14.2 14.2 14.2 100 0.0 SSW 7 13 4 7 1013.5 1013.1 0.8
30/01:30am 14.2 13.8 14.2 100 0.0 SSW 9 13 5 7 1013.4 1013.0 0.6
30/01:00am 14.2 14.2 14.2 100 0.0 S 7 11 4 6 1013.6 1013.2 0.6
30/12:30am 14.2 13.5 14.2 100 0.0 S 11 19 6 10 1013.7 1013.4 0.6
30/12:00am 14.5 13.9 14.5 100 0.0 S 11 17 6 9 1014.1 1013.8 0.4
 
Date/Time
WST
Temp
°C
App
Temp
°C
Dew
Point
Rel
Hum
%
Delta-T
°C
Wind Press
QNH
hPa
Press
MSL
hPa
Rain
since 9 am
mm
Dir
 
Spd
km/h
Gust
km/h
Spd
kts
Gust
kts
29/11:30pm 14.7 14.5 14.7 100 0.0 S 9 15 5 8 1014.1 1013.8 0.2
29/11:00pm 14.8 15.0 14.8 100 0.0 S 7 11 4 6 1014.6 1014.3 0.0
29/10:30pm 14.9 14.8 14.9 100 0.0 S 9 15 5 8 1014.7 1014.4 0.0
29/10:00pm 15.1 14.2 14.9 99 0.1 S 13 19 7 10 1014.3 1014.0 0.0
29/09:30pm 15.2 14.4 15.0 99 0.1 SSE 13 19 7 10 1014.4 1014.1 0.0
29/09:00pm 15.4 15.4 15.2 99 0.1 SSE 9 19 5 10 1014.8 1014.5 0.0
29/08:30pm 15.5 15.9 15.3 99 0.1 SSE 7 11 4 6 1014.5 1014.2 0.0

Other Formats:

Comma delimited format used in spreadsheet applications
http://www.bom.gov.au/fwo/IDW60801/IDW60801.95644.axf

JavaScript Object Notation format (JSON) in row-major order
http://www.bom.gov.au/fwo/IDW60801/IDW60801.95644.json